createdAt,value
2022-08-01T00:05:12.096Z,44.27
2022-08-01T00:07:47.959Z,43.77
2022-08-01T00:10:24.169Z,44.69
2022-08-01T00:13:08.213Z,44.79
2022-08-01T00:15:44.377Z,42.53
2022-08-01T00:18:22.627Z,43.44
2022-08-01T00:20:50.595Z,43.00
2022-08-01T00:23:20.110Z,44.23
2022-08-01T00:25:48.204Z,42.98
2022-08-01T00:28:17.313Z,44.07
2022-08-01T00:30:45.129Z,44.29
2022-08-01T00:33:13.153Z,43.84
2022-08-01T00:35:40.897Z,45.00
2022-08-01T00:38:08.825Z,44.45
2022-08-01T00:40:38.056Z,45.61
2022-08-01T00:43:06.049Z,44.91
2022-08-01T00:45:34.011Z,43.86
2022-08-01T00:48:01.877Z,43.98
2022-08-01T00:50:29.938Z,43.83
2022-08-01T00:52:59.583Z,44.64
2022-08-01T00:55:31.143Z,45.41
2022-08-01T00:58:05.713Z,44.54
2022-08-01T01:00:52.716Z,44.38
2022-08-01T01:03:58.012Z,44.40
2022-08-01T01:06:29.145Z,46.60
2022-08-01T01:09:14.569Z,46.29
2022-08-01T01:11:56.020Z,46.71
2022-08-01T01:14:43.802Z,46.74
2022-08-01T01:17:49.651Z,48.19
2022-08-01T01:25:04.014Z,47.12
2022-08-01T01:28:14.417Z,47.88
2022-08-01T01:30:49.217Z,46.19
2022-08-01T01:33:29.779Z,46.48
2022-08-01T01:36:20.957Z,47.02
2022-08-01T01:38:58.153Z,45.88
2022-08-01T01:44:50.757Z,45.74
2022-08-01T01:47:47.160Z,47.79
2022-08-01T01:50:17.934Z,45.84
2022-08-01T01:52:56.323Z,46.93
2022-08-01T01:55:29.436Z,46.21
2022-08-01T01:58:03.451Z,45.14
2022-08-01T02:00:35.408Z,46.07
2022-08-01T02:03:10.441Z,45.74
2022-08-01T02:05:43.738Z,46.47
2022-08-01T02:08:14.163Z,45.81
2022-08-01T02:11:04.461Z,45.87
2022-08-01T02:13:35.762Z,47.01
2022-08-01T02:16:07.137Z,46.02
2022-08-01T02:18:38.978Z,47.93
2022-08-01T02:21:17.420Z,47.66
2022-08-01T02:23:48.835Z,46.76
2022-08-01T02:26:21.387Z,46.56
2022-08-01T02:29:05.576Z,48.28
2022-08-01T02:31:40.980Z,47.63
2022-08-01T02:34:15.181Z,48.45
2022-08-01T02:36:43.731Z,47.76
2022-08-01T02:39:15.563Z,47.76
2022-08-01T02:41:47.248Z,47.60
2022-08-01T02:44:23.365Z,48.17
2022-08-01T02:46:56.489Z,48.65
2022-08-01T02:49:28.225Z,50.09
2022-08-01T02:51:56.953Z,47.82
2022-08-01T02:54:25.755Z,49.30
2022-08-01T02:56:54.888Z,47.81
2022-08-01T02:59:26.824Z,51.80
2022-08-01T03:01:57.294Z,48.67
2022-08-01T03:04:28.603Z,49.40
2022-08-01T03:06:59.543Z,48.30
2022-08-01T03:09:28.481Z,48.83
2022-08-01T03:11:59.454Z,51.41
2022-08-01T03:14:28.593Z,49.54
2022-08-01T03:16:58.041Z,49.19
2022-08-01T03:19:30.015Z,51.11
2022-08-01T03:22:00.949Z,50.01
2022-08-01T03:24:30.281Z,49.40
2022-08-01T03:26:59.500Z,49.92
2022-08-01T03:29:31.257Z,49.91
2022-08-01T03:32:00.541Z,49.13
2022-08-01T03:34:30.114Z,49.86
2022-08-01T03:37:05.368Z,50.44
2022-08-01T03:39:37.044Z,51.21
2022-08-01T03:42:11.922Z,51.28
2022-08-01T03:44:40.938Z,49.48
2022-08-01T03:47:11.323Z,50.64
2022-08-01T03:49:46.328Z,51.45
2022-08-01T03:52:15.995Z,49.48
2022-08-01T03:54:48.670Z,50.87
2022-08-01T03:57:35.715Z,49.72
2022-08-01T04:00:09.842Z,51.04
2022-08-01T04:02:41.045Z,50.03
2022-08-01T04:05:12.244Z,50.87
2022-08-01T04:07:41.753Z,50.27
2022-08-01T04:10:09.853Z,51.35
2022-08-01T04:12:37.743Z,50.11
2022-08-01T04:15:07.128Z,50.62
2022-08-01T04:17:40.099Z,51.16
2022-08-01T04:20:13.226Z,51.34
2022-08-01T04:22:44.781Z,50.54
2022-08-01T04:25:26.761Z,53.27
2022-08-01T04:28:01.157Z,53.34
2022-08-01T04:30:32.558Z,51.11
2022-08-01T04:33:12.533Z,53.18
2022-08-01T04:36:01.942Z,52.68
2022-08-01T04:38:41.432Z,51.85
2022-08-01T04:41:13.876Z,52.10
2022-08-01T04:43:44.352Z,52.43
2022-08-01T04:46:14.075Z,52.43
2022-08-01T04:48:42.718Z,52.04
2022-08-01T04:51:17.326Z,55.10
2022-08-01T04:53:47.811Z,52.37
2022-08-01T04:56:16.159Z,53.35
2022-08-01T04:58:45.139Z,52.65
2022-08-01T05:01:13.599Z,55.24
2022-08-01T05:03:41.677Z,53.18
2022-08-01T05:06:09.632Z,54.73
2022-08-01T05:08:39.051Z,58.12
2022-08-01T05:11:06.988Z,54.78
2022-08-01T05:13:35.082Z,54.16
2022-08-01T05:16:04.683Z,54.34
2022-08-01T05:18:32.793Z,55.77
2022-08-01T05:21:00.831Z,56.15
2022-08-01T05:23:43.299Z,59.48
2022-08-01T05:26:15.063Z,55.14
2022-08-01T05:28:43.551Z,56.09
2022-08-01T05:31:11.582Z,57.06
2022-08-01T05:33:39.340Z,54.98
2022-08-01T05:36:07.310Z,54.72
2022-08-01T05:38:35.035Z,55.63
2022-08-01T05:41:02.943Z,56.72
2022-08-01T05:43:32.197Z,56.28
2022-08-01T05:46:00.432Z,54.91
2022-08-01T05:48:28.304Z,57.54
2022-08-01T05:50:58.720Z,55.43
2022-08-01T05:53:27.694Z,56.28
2022-08-01T05:55:55.511Z,55.92
2022-08-01T05:58:23.744Z,55.30
2022-08-01T06:00:52.963Z,56.25
2022-08-01T06:03:21.115Z,54.95
2022-08-01T06:05:48.834Z,55.05
2022-08-01T06:08:16.651Z,54.90
2022-08-01T06:10:44.668Z,56.03
2022-08-01T06:13:12.521Z,55.94
2022-08-01T06:15:41.586Z,54.71
2022-08-01T06:18:10.722Z,55.75
2022-08-01T06:20:38.653Z,55.14
2022-08-01T06:23:12.194Z,56.18
2022-08-01T06:25:55.423Z,55.20
2022-08-01T06:28:23.473Z,55.13
2022-08-01T06:30:51.339Z,54.65
2022-08-01T06:33:20.599Z,54.88
2022-08-01T06:35:48.442Z,54.54
2022-08-01T06:38:16.247Z,55.39
2022-08-01T06:40:44.199Z,56.11
2022-08-01T06:43:12.737Z,55.20
2022-08-01T06:45:40.885Z,55.35
2022-08-01T06:48:08.870Z,54.50
2022-08-01T06:50:38.003Z,55.89
2022-08-01T06:53:06.179Z,56.58
2022-08-01T06:55:34.053Z,56.48
2022-08-01T06:58:02.155Z,56.37
2022-08-01T07:00:30.193Z,56.51
2022-08-01T07:03:00.484Z,58.30
2022-08-01T07:05:31.863Z,57.74
2022-08-01T07:08:01.311Z,58.40
2022-08-01T07:10:29.098Z,56.83
2022-08-01T07:12:57.094Z,57.00
2022-08-01T07:15:27.589Z,56.16
2022-08-01T07:17:55.682Z,56.07
2022-08-01T07:20:23.617Z,55.69
2022-08-01T07:22:51.494Z,55.28
2022-08-01T07:25:20.606Z,55.56
2022-08-01T07:27:48.679Z,54.79
2022-08-01T07:30:16.771Z,55.03
2022-08-01T07:32:44.863Z,57.81
2022-08-01T07:35:13.036Z,56.57
2022-08-01T07:37:45.332Z,55.72
2022-08-01T07:40:18.073Z,55.67
2022-08-01T07:42:47.431Z,56.32
2022-08-01T07:45:15.713Z,55.31
2022-08-01T07:47:43.974Z,55.00
2022-08-01T07:50:13.783Z,56.02
2022-08-01T07:52:41.950Z,55.71
2022-08-01T07:55:11.271Z,54.76
2022-08-01T07:57:39.192Z,54.47
2022-08-01T08:00:10.621Z,56.99
2022-08-01T08:02:38.436Z,55.53
2022-08-01T08:05:08.227Z,55.83
2022-08-01T08:07:36.259Z,56.34
2022-08-01T08:10:04.940Z,55.61
2022-08-01T08:12:34.283Z,56.06
2022-08-01T08:15:02.220Z,56.15
2022-08-01T08:17:35.551Z,55.97
2022-08-01T08:20:08.915Z,55.89
2022-08-01T08:22:38.080Z,56.16
2022-08-01T08:25:07.675Z,54.88
2022-08-01T08:27:37.271Z,54.40
2022-08-01T08:30:08.548Z,54.25
2022-08-01T08:32:38.083Z,54.13
2022-08-01T08:35:07.083Z,53.90
2022-08-01T08:37:37.955Z,54.05
2022-08-01T08:40:12.833Z,53.48
2022-08-01T08:42:41.996Z,54.00
2022-08-01T08:45:12.311Z,53.77
2022-08-01T08:47:43.826Z,54.69
2022-08-01T08:50:11.992Z,54.25
2022-08-01T08:52:42.156Z,54.07
2022-08-01T08:55:11.986Z,55.06
2022-08-01T08:57:42.405Z,55.12
2022-08-01T09:00:13.185Z,54.82
2022-08-01T09:02:45.206Z,54.87
2022-08-01T09:05:18.855Z,54.40
2022-08-01T09:07:47.349Z,53.97
2022-08-01T09:10:15.372Z,54.75
2022-08-01T09:13:08.268Z,55.04
2022-08-01T09:15:45.509Z,54.37
2022-08-01T09:18:34.979Z,54.06
2022-08-01T09:21:22.309Z,53.52
2022-08-01T09:23:54.005Z,52.23
2022-08-01T09:26:30.233Z,52.17
2022-08-01T09:28:59.387Z,52.61
2022-08-01T09:31:37.912Z,52.56
2022-08-01T09:34:09.285Z,52.71
2022-08-01T09:36:54.232Z,52.71
2022-08-01T09:39:23.813Z,52.25
2022-08-01T09:41:52.013Z,52.05
2022-08-01T09:44:42.936Z,52.91
2022-08-01T09:47:15.565Z,52.13
2022-08-01T09:49:50.752Z,52.17
2022-08-01T09:52:25.647Z,52.18
2022-08-01T09:54:57.457Z,52.31
2022-08-01T09:57:26.391Z,52.37
2022-08-01T09:59:58.844Z,51.93
2022-08-01T10:02:33.104Z,52.43
2022-08-01T10:05:08.834Z,52.37
2022-08-01T10:07:43.966Z,51.71
2022-08-01T10:10:14.633Z,51.57
2022-08-01T10:12:45.096Z,51.20
2022-08-01T10:15:18.084Z,51.10
2022-08-01T10:17:54.695Z,51.70
2022-08-01T10:20:31.002Z,52.18
2022-08-01T10:23:05.596Z,52.67
2022-08-01T10:25:42.610Z,52.46
2022-08-01T10:28:17.897Z,52.69
2022-08-01T10:34:01.691Z,52.18
2022-08-01T10:36:32.598Z,52.60
2022-08-01T10:39:01.261Z,52.45
2022-08-01T10:41:31.004Z,51.88
2022-08-01T10:43:59.665Z,51.55
2022-08-01T10:46:28.434Z,51.43
2022-08-01T10:49:05.763Z,51.92
2022-08-01T10:51:51.649Z,52.32
2022-08-01T10:54:27.259Z,52.10
2022-08-01T10:56:57.596Z,52.34
2022-08-01T10:59:49.310Z,53.06
2022-08-01T11:02:32.351Z,52.62
2022-08-01T11:05:04.704Z,52.62
2022-08-01T11:07:49.841Z,52.87
2022-08-01T11:10:26.808Z,52.40
2022-08-01T11:12:55.853Z,51.45
2022-08-01T11:15:32.279Z,52.52
2022-08-01T11:18:02.247Z,52.49
2022-08-01T11:20:34.233Z,53.35
2022-08-01T11:23:36.162Z,53.81
2022-08-01T11:26:15.223Z,52.86
2022-08-01T11:29:19.117Z,52.41
2022-08-01T11:31:38.936Z,52.67
2022-08-01T11:34:08.329Z,52.70
2022-08-01T11:36:58.268Z,52.01
2022-08-01T11:39:27.364Z,52.14
2022-08-01T11:41:56.126Z,51.96
2022-08-01T11:44:30.561Z,52.18
2022-08-01T11:47:01.874Z,51.70
2022-08-01T11:49:49.893Z,52.35
2022-08-01T11:52:21.653Z,51.53
2022-08-01T11:54:54.601Z,52.66
2022-08-01T11:57:33.864Z,52.74
2022-08-01T12:00:08.363Z,53.70
2022-08-01T12:02:45.465Z,53.25
2022-08-01T12:05:16.146Z,53.26
2022-08-01T12:07:45.991Z,53.42
2022-08-01T12:10:17.311Z,53.83
2022-08-01T12:12:47.608Z,53.85
2022-08-01T12:15:16.301Z,53.98
2022-08-01T12:17:57.935Z,53.82
2022-08-01T12:20:30.698Z,54.46
2022-08-01T12:23:00.159Z,53.94
2022-08-01T12:25:29.862Z,54.45
2022-08-01T12:28:02.939Z,53.81
2022-08-01T12:30:36.587Z,52.89
2022-08-01T12:33:07.261Z,52.19
2022-08-01T12:35:39.048Z,52.60
2022-08-01T12:38:10.941Z,51.57
2022-08-01T12:40:45.497Z,51.52
2022-08-01T12:43:26.876Z,51.04
2022-08-01T12:45:58.267Z,50.76
2022-08-01T12:48:27.544Z,50.42
2022-08-01T12:51:01.671Z,50.26
2022-08-01T12:53:40.932Z,49.89
2022-08-01T12:56:13.077Z,49.95
2022-08-01T12:58:44.518Z,50.11
2022-08-01T13:01:14.502Z,51.08
2022-08-01T13:03:43.217Z,52.06
2022-08-01T13:06:17.893Z,52.01
2022-08-01T13:08:47.553Z,51.88
2022-08-01T13:11:19.856Z,52.11
2022-08-01T13:13:49.807Z,51.49
2022-08-01T13:16:30.376Z,51.17
2022-08-01T13:19:03.211Z,50.57
2022-08-01T13:21:34.669Z,50.22
2022-08-01T13:24:27.203Z,50.04
2022-08-01T13:27:01.959Z,50.02
2022-08-01T13:29:42.736Z,49.57
2022-08-01T13:32:28.431Z,49.47
2022-08-01T13:35:06.632Z,49.33
2022-08-01T13:37:35.268Z,49.28
2022-08-01T13:40:08.002Z,49.02
2022-08-01T13:42:37.770Z,49.57
2022-08-01T13:45:14.449Z,49.58
2022-08-01T13:48:03.752Z,49.90
2022-08-01T13:50:32.755Z,50.10
2022-08-01T13:53:01.001Z,50.31
2022-08-01T13:55:34.593Z,50.17
2022-08-01T13:58:06.457Z,50.81
2022-08-01T14:00:35.070Z,50.84
2022-08-01T14:03:03.337Z,50.90
2022-08-01T14:05:32.250Z,50.64
2022-08-01T14:08:00.465Z,50.83
2022-08-01T14:10:29.698Z,50.55
2022-08-01T14:12:59.826Z,50.44
2022-08-01T14:15:38.475Z,50.72
2022-08-01T14:18:09.757Z,50.72
2022-08-01T14:20:40.347Z,50.63
2022-08-01T14:23:09.371Z,51.13
2022-08-01T14:26:03.617Z,50.78
2022-08-01T14:28:28.690Z,51.33
2022-08-01T14:30:58.388Z,51.99
2022-08-01T14:33:27.892Z,51.67
2022-08-01T14:36:06.289Z,51.78
2022-08-01T14:38:52.444Z,52.31
2022-08-01T14:41:20.976Z,51.54
2022-08-01T14:43:49.409Z,51.25
2022-08-01T14:46:19.275Z,51.41
2022-08-01T14:48:47.609Z,50.58
2022-08-01T14:51:15.901Z,50.57
2022-08-01T14:53:47.125Z,50.44
2022-08-01T14:56:20.057Z,50.38
2022-08-01T14:58:48.755Z,49.97
2022-08-01T15:01:19.106Z,49.78
2022-08-01T15:03:49.422Z,49.64
2022-08-01T15:06:19.937Z,49.05
2022-08-01T15:08:48.043Z,49.24
2022-08-01T15:11:16.794Z,49.00
2022-08-01T15:13:45.190Z,48.69
2022-08-01T15:16:13.676Z,48.71
2022-08-01T15:18:44.859Z,48.29
2022-08-01T15:21:29.278Z,48.81
2022-08-01T15:24:02.482Z,48.86
2022-08-01T15:26:31.465Z,48.98
2022-08-01T15:28:59.678Z,48.82
2022-08-01T15:31:28.823Z,49.11
2022-08-01T15:33:59.656Z,49.35
2022-08-01T15:36:30.110Z,49.43
2022-08-01T15:39:00.265Z,49.37
2022-08-01T15:41:28.671Z,49.39
2022-08-01T15:43:57.759Z,49.87
2022-08-01T15:46:26.261Z,49.56
2022-08-01T15:48:54.558Z,49.17
2022-08-01T15:51:24.543Z,49.21
2022-08-01T15:53:52.855Z,48.99
2022-08-01T15:56:23.129Z,48.90
2022-08-01T15:58:51.414Z,48.75
2022-08-01T16:01:20.846Z,48.78
2022-08-01T16:03:49.085Z,48.26
2022-08-01T16:06:17.537Z,48.43
2022-08-01T16:08:48.061Z,48.25
2022-08-01T16:11:16.321Z,48.15
2022-08-01T16:13:45.675Z,48.03
2022-08-01T16:16:15.355Z,47.84
2022-08-01T16:18:53.947Z,47.51
2022-08-01T16:21:25.126Z,48.02
2022-08-01T16:23:54.719Z,47.92
2022-08-01T16:26:27.109Z,47.15
2022-08-01T16:28:56.392Z,47.41
2022-08-01T16:31:52.168Z,47.58
2022-08-01T16:34:15.144Z,47.82
2022-08-01T16:36:44.358Z,47.49
2022-08-01T16:39:15.784Z,47.63
2022-08-01T16:41:46.384Z,47.65
2022-08-01T16:44:17.495Z,47.67
2022-08-01T16:46:58.348Z,47.47
2022-08-01T16:49:27.151Z,47.32
2022-08-01T16:52:07.499Z,47.56
2022-08-01T16:54:37.594Z,47.64
2022-08-01T16:57:08.802Z,47.63
2022-08-01T16:59:41.406Z,47.68
2022-08-01T17:02:12.821Z,47.63
2022-08-01T17:04:41.361Z,47.35
2022-08-01T17:07:09.819Z,47.48
2022-08-01T17:09:43.524Z,47.61
2022-08-01T17:12:14.441Z,47.42
2022-08-01T17:14:50.426Z,47.38
2022-08-01T17:17:18.476Z,47.63
2022-08-01T17:19:48.217Z,47.40
2022-08-01T17:22:16.906Z,47.49
2022-08-01T17:24:51.528Z,47.59
2022-08-01T17:27:20.337Z,47.41
2022-08-01T17:29:49.414Z,47.32
2022-08-01T17:32:18.331Z,47.25
2022-08-01T17:34:50.475Z,47.36
2022-08-01T17:37:19.832Z,47.42
2022-08-01T17:39:50.173Z,47.42
2022-08-01T17:42:19.204Z,47.54
2022-08-01T17:44:48.769Z,47.47
2022-08-01T17:47:34.691Z,47.56
2022-08-01T17:50:09.221Z,47.71
2022-08-01T17:52:38.091Z,47.76
2022-08-01T17:55:56.938Z,47.90
2022-08-01T17:58:05.185Z,47.63
2022-08-01T18:00:36.321Z,47.85
2022-08-01T18:03:08.080Z,47.67
2022-08-01T18:05:38.112Z,47.65
2022-08-01T18:08:07.887Z,47.77
2022-08-01T18:11:06.165Z,47.96
2022-08-01T18:13:59.929Z,47.90
2022-08-01T18:16:51.282Z,48.09
2022-08-01T18:19:42.265Z,47.74
2022-08-01T18:22:39.825Z,48.12
2022-08-01T18:25:24.804Z,47.51
2022-08-01T18:28:23.216Z,47.74
2022-08-01T18:31:02.625Z,47.65
2022-08-01T18:33:42.471Z,47.65
2022-08-01T18:39:23.360Z,47.97
2022-08-01T18:53:33.697Z,48.32
2022-08-01T19:04:00.768Z,48.61
2022-08-01T19:06:34.641Z,48.27
2022-08-01T19:09:21.082Z,48.14
2022-08-01T19:11:53.749Z,48.34
2022-08-01T19:14:30.755Z,48.26
2022-08-01T19:17:14.809Z,48.23
2022-08-01T19:19:50.740Z,48.83
2022-08-01T19:22:33.243Z,48.29
2022-08-01T19:25:55.012Z,48.57
2022-08-01T19:29:04.339Z,48.37
2022-08-01T19:31:49.452Z,48.51
2022-08-01T19:35:31.147Z,48.57
2022-08-01T19:42:00.689Z,49.20
2022-08-01T19:47:52.089Z,49.24
2022-08-01T19:50:26.776Z,48.61
2022-08-01T19:53:08.492Z,48.99
2022-08-01T19:55:54.997Z,49.17
2022-08-01T19:58:32.092Z,49.06
2022-08-01T20:01:02.020Z,49.00
2022-08-01T20:03:44.440Z,48.75
2022-08-01T20:06:26.151Z,49.16
2022-08-01T20:08:57.500Z,48.94
2022-08-01T20:11:35.381Z,49.01
2022-08-01T20:16:55.524Z,48.78
2022-08-01T20:19:33.198Z,49.07
2022-08-01T20:22:04.830Z,49.05
2022-08-01T20:24:39.450Z,49.30
2022-08-01T20:27:09.434Z,49.01
2022-08-01T20:29:39.773Z,49.39
2022-08-01T20:32:19.718Z,49.46
2022-08-01T20:34:51.773Z,49.17
2022-08-01T20:38:03.729Z,49.17
2022-08-01T20:40:25.144Z,49.13
2022-08-01T20:42:58.993Z,49.34
2022-08-01T20:48:45.388Z,49.14
2022-08-01T20:51:29.621Z,49.47
2022-08-01T20:54:01.995Z,49.12
2022-08-01T20:56:46.979Z,49.88
2022-08-01T20:59:40.100Z,50.16
2022-08-01T21:02:41.682Z,50.85
2022-08-01T21:05:17.579Z,49.77
2022-08-01T21:07:57.314Z,50.38
2022-08-01T21:10:31.773Z,50.11
2022-08-01T21:13:42.102Z,50.76
2022-08-01T21:17:08.290Z,50.93
2022-08-01T21:20:36.200Z,50.96
2022-08-01T21:23:20.916Z,50.59
2022-08-01T21:25:49.404Z,49.78
2022-08-01T21:28:19.741Z,49.95
2022-08-01T21:30:53.735Z,50.38
2022-08-01T21:33:25.353Z,49.98
2022-08-01T21:36:00.105Z,50.47
2022-08-01T21:38:32.008Z,50.50
2022-08-01T21:41:04.752Z,51.01
2022-08-01T21:43:35.652Z,51.19
2022-08-01T21:46:04.886Z,51.61
2022-08-01T21:48:33.515Z,51.30
2022-08-01T21:51:08.563Z,52.08
2022-08-01T21:53:47.454Z,50.75
2022-08-01T21:56:27.462Z,51.36
2022-08-01T21:59:03.852Z,51.42
2022-08-01T22:01:52.211Z,51.12
2022-08-01T22:04:32.061Z,51.96
2022-08-01T22:07:02.333Z,51.54
2022-08-01T22:09:32.468Z,51.42
2022-08-01T22:12:06.714Z,52.44
2022-08-01T22:14:40.847Z,51.27
2022-08-01T22:17:09.828Z,51.35
2022-08-01T22:19:45.509Z,51.05
2022-08-01T22:22:44.278Z,51.58
2022-08-01T22:25:05.653Z,51.55
2022-08-01T22:28:02.893Z,51.32
2022-08-01T22:30:36.333Z,51.77
2022-08-01T22:33:15.220Z,51.66
2022-08-01T22:35:47.008Z,51.44
2022-08-01T22:38:19.246Z,52.17
2022-08-01T22:40:50.854Z,52.40
2022-08-01T22:43:33.431Z,52.73
2022-08-01T22:46:15.859Z,52.86
2022-08-01T22:48:47.788Z,52.41
2022-08-01T22:51:28.053Z,52.98
2022-08-01T22:54:06.263Z,52.94
2022-08-01T22:56:39.727Z,52.72
2022-08-01T22:59:12.532Z,52.82
2022-08-01T23:01:47.499Z,52.83
2022-08-01T23:04:33.452Z,53.50
2022-08-01T23:07:05.642Z,53.04
2022-08-01T23:09:53.188Z,53.13
2022-08-01T23:12:23.794Z,52.59
2022-08-01T23:14:53.877Z,52.74
2022-08-01T23:17:27.296Z,52.71
2022-08-01T23:19:58.043Z,52.55
2022-08-01T23:22:30.641Z,53.21
2022-08-01T23:25:04.720Z,53.67
2022-08-01T23:27:51.936Z,53.45
2022-08-01T23:30:26.101Z,53.66
2022-08-01T23:32:54.307Z,53.09
2022-08-01T23:35:22.911Z,53.15
2022-08-01T23:37:52.186Z,53.34
2022-08-01T23:40:24.787Z,53.49
2022-08-01T23:42:54.733Z,53.49
2022-08-01T23:46:04.671Z,54.69
2022-08-01T23:53:44.479Z,55.38
2022-08-01T23:56:32.028Z,54.57
2022-08-01T23:59:19.029Z,54.01
